sensor_id;sensor_type;location;lat;lon;timestamp;P1;durP1;ratioP1;P2;durP2;ratioP2
9675;SDS011;4876;42.656;23.292;2022-12-18T00:00:45;5.83;;;4.43;;
9675;SDS011;4876;42.656;23.292;2022-12-18T00:03:13;7.10;;;5.00;;
9675;SDS011;4876;42.656;23.292;2022-12-18T00:05:47;7.90;;;5.50;;
9675;SDS011;4876;42.656;23.292;2022-12-18T00:08:14;8.53;;;6.17;;
9675;SDS011;4876;42.656;23.292;2022-12-18T00:10:41;6.80;;;5.40;;
9675;SDS011;4876;42.656;23.292;2022-12-18T00:13:08;6.40;;;5.33;;
9675;SDS011;4876;42.656;23.292;2022-12-18T00:15:35;7.20;;;5.47;;
9675;SDS011;4876;42.656;23.292;2022-12-18T00:18:02;6.77;;;5.50;;
9675;SDS011;4876;42.656;23.292;2022-12-18T00:20:29;7.03;;;6.33;;
9675;SDS011;4876;42.656;23.292;2022-12-18T00:22:58;7.63;;;6.30;;
9675;SDS011;4876;42.656;23.292;2022-12-18T00:25:25;7.27;;;5.77;;
9675;SDS011;4876;42.656;23.292;2022-12-18T00:27:51;7.00;;;5.90;;
9675;SDS011;4876;42.656;23.292;2022-12-18T00:30:18;7.93;;;6.17;;
9675;SDS011;4876;42.656;23.292;2022-12-18T00:32:45;7.80;;;6.00;;
9675;SDS011;4876;42.656;23.292;2022-12-18T00:35:12;7.57;;;6.50;;
9675;SDS011;4876;42.656;23.292;2022-12-18T00:37:38;8.60;;;6.43;;
9675;SDS011;4876;42.656;23.292;2022-12-18T00:40:07;8.13;;;6.43;;
9675;SDS011;4876;42.656;23.292;2022-12-18T00:42:35;7.30;;;5.90;;
9675;SDS011;4876;42.656;23.292;2022-12-18T00:45:16;7.27;;;5.80;;
9675;SDS011;4876;42.656;23.292;2022-12-18T00:47:43;5.70;;;4.83;;
9675;SDS011;4876;42.656;23.292;2022-12-18T00:50:10;5.27;;;4.50;;
9675;SDS011;4876;42.656;23.292;2022-12-18T00:52:36;7.93;;;4.90;;
9675;SDS011;4876;42.656;23.292;2022-12-18T00:55:07;7.07;;;5.70;;
9675;SDS011;4876;42.656;23.292;2022-12-18T00:57:35;7.00;;;5.63;;
9675;SDS011;4876;42.656;23.292;2022-12-18T01:00:02;9.30;;;5.90;;
9675;SDS011;4876;42.656;23.292;2022-12-18T01:02:29;7.00;;;5.97;;
9675;SDS011;4876;42.656;23.292;2022-12-18T01:04:56;6.67;;;5.17;;
9675;SDS011;4876;42.656;23.292;2022-12-18T01:07:23;6.90;;;5.30;;
9675;SDS011;4876;42.656;23.292;2022-12-18T01:09:50;6.10;;;5.17;;
9675;SDS011;4876;42.656;23.292;2022-12-18T01:12:18;6.07;;;4.87;;
9675;SDS011;4876;42.656;23.292;2022-12-18T01:14:45;7.13;;;5.47;;
9675;SDS011;4876;42.656;23.292;2022-12-18T01:17:12;7.67;;;6.00;;
9675;SDS011;4876;42.656;23.292;2022-12-18T01:19:39;7.37;;;5.57;;
9675;SDS011;4876;42.656;23.292;2022-12-18T01:22:07;7.97;;;6.17;;
9675;SDS011;4876;42.656;23.292;2022-12-18T01:24:36;8.13;;;6.53;;
9675;SDS011;4876;42.656;23.292;2022-12-18T01:27:02;9.03;;;6.87;;
9675;SDS011;4876;42.656;23.292;2022-12-18T01:29:30;9.60;;;7.23;;
9675;SDS011;4876;42.656;23.292;2022-12-18T01:31:57;9.90;;;7.53;;
9675;SDS011;4876;42.656;23.292;2022-12-18T01:34:24;8.73;;;7.27;;
9675;SDS011;4876;42.656;23.292;2022-12-18T01:36:51;13.37;;;8.10;;
9675;SDS011;4876;42.656;23.292;2022-12-18T01:39:18;9.30;;;8.13;;
9675;SDS011;4876;42.656;23.292;2022-12-18T01:41:45;10.10;;;8.07;;
9675;SDS011;4876;42.656;23.292;2022-12-18T01:47:26;11.57;;;8.60;;
9675;SDS011;4876;42.656;23.292;2022-12-18T01:49:57;9.47;;;7.63;;
9675;SDS011;4876;42.656;23.292;2022-12-18T01:52:26;11.33;;;8.57;;
9675;SDS011;4876;42.656;23.292;2022-12-18T01:54:55;11.40;;;8.53;;
9675;SDS011;4876;42.656;23.292;2022-12-18T01:57:23;10.93;;;9.10;;
9675;SDS011;4876;42.656;23.292;2022-12-18T01:59:52;12.23;;;8.53;;
9675;SDS011;4876;42.656;23.292;2022-12-18T02:02:21;11.30;;;8.57;;
9675;SDS011;4876;42.656;23.292;2022-12-18T02:04:48;16.27;;;9.00;;
9675;SDS011;4876;42.656;23.292;2022-12-18T02:07:17;12.33;;;9.40;;
9675;SDS011;4876;42.656;23.292;2022-12-18T02:09:51;12.97;;;9.03;;
9675;SDS011;4876;42.656;23.292;2022-12-18T02:12:22;15.80;;;9.67;;
9675;SDS011;4876;42.656;23.292;2022-12-18T02:14:53;11.93;;;8.90;;
9675;SDS011;4876;42.656;23.292;2022-12-18T02:17:28;10.40;;;8.77;;
9675;SDS011;4876;42.656;23.292;2022-12-18T02:20:04;12.93;;;9.10;;
9675;SDS011;4876;42.656;23.292;2022-12-18T02:22:40;12.07;;;8.97;;
9675;SDS011;4876;42.656;23.292;2022-12-18T02:25:22;11.77;;;8.53;;
9675;SDS011;4876;42.656;23.292;2022-12-18T02:28:03;11.67;;;8.40;;
9675;SDS011;4876;42.656;23.292;2022-12-18T02:30:33;12.37;;;8.80;;
9675;SDS011;4876;42.656;23.292;2022-12-18T02:33:01;10.93;;;7.70;;
9675;SDS011;4876;42.656;23.292;2022-12-18T02:35:32;9.90;;;8.60;;
9675;SDS011;4876;42.656;23.292;2022-12-18T02:38:01;11.70;;;9.10;;
9675;SDS011;4876;42.656;23.292;2022-12-18T02:40:29;10.50;;;8.57;;
9675;SDS011;4876;42.656;23.292;2022-12-18T02:43:03;11.60;;;9.20;;
9675;SDS011;4876;42.656;23.292;2022-12-18T02:45:33;10.63;;;8.47;;
9675;SDS011;4876;42.656;23.292;2022-12-18T02:48:00;14.40;;;8.93;;
9675;SDS011;4876;42.656;23.292;2022-12-18T02:50:29;11.50;;;8.67;;
9675;SDS011;4876;42.656;23.292;2022-12-18T02:53:04;11.23;;;9.37;;
9675;SDS011;4876;42.656;23.292;2022-12-18T02:55:43;11.97;;;8.73;;
9675;SDS011;4876;42.656;23.292;2022-12-18T02:58:20;12.27;;;8.23;;
9675;SDS011;4876;42.656;23.292;2022-12-18T03:00:57;10.83;;;7.70;;
9675;SDS011;4876;42.656;23.292;2022-12-18T03:03:28;7.77;;;5.53;;
9675;SDS011;4876;42.656;23.292;2022-12-18T03:06:00;7.13;;;6.23;;
9675;SDS011;4876;42.656;23.292;2022-12-18T03:08:33;11.47;;;7.83;;
9675;SDS011;4876;42.656;23.292;2022-12-18T03:11:07;9.47;;;7.37;;
9675;SDS011;4876;42.656;23.292;2022-12-18T03:13:40;12.57;;;8.33;;
9675;SDS011;4876;42.656;23.292;2022-12-18T03:16:11;10.47;;;7.80;;
9675;SDS011;4876;42.656;23.292;2022-12-18T03:18:42;10.47;;;7.73;;
9675;SDS011;4876;42.656;23.292;2022-12-18T03:21:13;8.47;;;6.63;;
9675;SDS011;4876;42.656;23.292;2022-12-18T03:23:45;8.87;;;6.60;;
9675;SDS011;4876;42.656;23.292;2022-12-18T03:26:16;11.27;;;5.90;;
9675;SDS011;4876;42.656;23.292;2022-12-18T03:28:49;7.70;;;5.00;;
9675;SDS011;4876;42.656;23.292;2022-12-18T03:31:19;6.30;;;4.90;;
9675;SDS011;4876;42.656;23.292;2022-12-18T03:33:51;7.03;;;5.43;;
9675;SDS011;4876;42.656;23.292;2022-12-18T03:36:19;7.60;;;5.33;;
9675;SDS011;4876;42.656;23.292;2022-12-18T03:38:46;9.87;;;5.00;;
9675;SDS011;4876;42.656;23.292;2022-12-18T03:41:15;7.13;;;4.93;;
9675;SDS011;4876;42.656;23.292;2022-12-18T03:43:48;6.73;;;5.10;;
9675;SDS011;4876;42.656;23.292;2022-12-18T03:46:21;6.37;;;5.00;;
9675;SDS011;4876;42.656;23.292;2022-12-18T03:48:58;6.97;;;5.37;;
9675;SDS011;4876;42.656;23.292;2022-12-18T03:51:30;7.53;;;5.93;;
9675;SDS011;4876;42.656;23.292;2022-12-18T03:54:03;7.10;;;4.97;;
9675;SDS011;4876;42.656;23.292;2022-12-18T03:56:34;6.70;;;5.07;;
9675;SDS011;4876;42.656;23.292;2022-12-18T03:59:06;7.00;;;5.60;;
9675;SDS011;4876;42.656;23.292;2022-12-18T04:01:37;6.97;;;5.20;;
9675;SDS011;4876;42.656;23.292;2022-12-18T04:04:06;6.37;;;4.90;;
9675;SDS011;4876;42.656;23.292;2022-12-18T04:06:36;6.77;;;4.60;;
9675;SDS011;4876;42.656;23.292;2022-12-18T04:09:04;6.30;;;4.77;;
9675;SDS011;4876;42.656;23.292;2022-12-18T04:11:32;7.40;;;4.90;;
9675;SDS011;4876;42.656;23.292;2022-12-18T04:13:58;5.90;;;4.60;;
9675;SDS011;4876;42.656;23.292;2022-12-18T04:16:27;6.93;;;5.27;;
9675;SDS011;4876;42.656;23.292;2022-12-18T04:18:54;7.30;;;5.20;;
9675;SDS011;4876;42.656;23.292;2022-12-18T04:21:21;8.43;;;5.43;;
9675;SDS011;4876;42.656;23.292;2022-12-18T04:23:48;8.00;;;4.73;;
9675;SDS011;4876;42.656;23.292;2022-12-18T04:26:14;6.70;;;4.80;;
9675;SDS011;4876;42.656;23.292;2022-12-18T04:28:41;6.70;;;5.20;;
9675;SDS011;4876;42.656;23.292;2022-12-18T04:31:08;7.83;;;5.80;;
9675;SDS011;4876;42.656;23.292;2022-12-18T04:33:36;6.37;;;5.10;;
9675;SDS011;4876;42.656;23.292;2022-12-18T04:36:03;7.80;;;5.53;;
9675;SDS011;4876;42.656;23.292;2022-12-18T04:38:31;7.93;;;6.03;;
9675;SDS011;4876;42.656;23.292;2022-12-18T04:40:58;7.10;;;5.27;;
9675;SDS011;4876;42.656;23.292;2022-12-18T04:43:25;9.23;;;5.97;;
9675;SDS011;4876;42.656;23.292;2022-12-18T04:45:52;8.83;;;6.47;;
9675;SDS011;4876;42.656;23.292;2022-12-18T04:48:19;7.47;;;5.67;;
9675;SDS011;4876;42.656;23.292;2022-12-18T04:50:48;10.53;;;5.70;;
9675;SDS011;4876;42.656;23.292;2022-12-18T04:53:15;10.13;;;7.50;;
9675;SDS011;4876;42.656;23.292;2022-12-18T04:55:41;9.37;;;6.77;;
9675;SDS011;4876;42.656;23.292;2022-12-18T04:58:08;8.97;;;6.67;;
9675;SDS011;4876;42.656;23.292;2022-12-18T05:00:35;4.60;;;3.97;;
9675;SDS011;4876;42.656;23.292;2022-12-18T05:03:02;9.20;;;6.80;;
9675;SDS011;4876;42.656;23.292;2022-12-18T05:05:29;9.13;;;6.73;;
9675;SDS011;4876;42.656;23.292;2022-12-18T05:07:57;9.70;;;6.33;;
9675;SDS011;4876;42.656;23.292;2022-12-18T05:10:24;11.67;;;7.03;;
9675;SDS011;4876;42.656;23.292;2022-12-18T05:12:51;11.50;;;7.73;;
9675;SDS011;4876;42.656;23.292;2022-12-18T05:15:27;11.50;;;8.03;;
9675;SDS011;4876;42.656;23.292;2022-12-18T05:17:55;10.77;;;7.57;;
9675;SDS011;4876;42.656;23.292;2022-12-18T05:20:22;14.60;;;8.00;;
9675;SDS011;4876;42.656;23.292;2022-12-18T05:22:49;11.07;;;8.33;;
9675;SDS011;4876;42.656;23.292;2022-12-18T05:25:20;12.60;;;9.10;;
9675;SDS011;4876;42.656;23.292;2022-12-18T05:27:48;12.87;;;8.77;;
9675;SDS011;4876;42.656;23.292;2022-12-18T05:30:15;12.90;;;8.80;;
9675;SDS011;4876;42.656;23.292;2022-12-18T05:32:42;13.40;;;9.03;;
9675;SDS011;4876;42.656;23.292;2022-12-18T05:35:09;10.97;;;8.77;;
9675;SDS011;4876;42.656;23.292;2022-12-18T05:37:37;11.30;;;8.17;;
9675;SDS011;4876;42.656;23.292;2022-12-18T05:40:04;9.67;;;7.57;;
9675;SDS011;4876;42.656;23.292;2022-12-18T05:42:33;10.20;;;7.43;;
9675;SDS011;4876;42.656;23.292;2022-12-18T05:45:00;15.23;;;8.43;;
9675;SDS011;4876;42.656;23.292;2022-12-18T05:47:27;13.93;;;8.60;;
9675;SDS011;4876;42.656;23.292;2022-12-18T05:49:54;13.33;;;10.03;;
9675;SDS011;4876;42.656;23.292;2022-12-18T05:52:21;15.37;;;10.43;;
9675;SDS011;4876;42.656;23.292;2022-12-18T05:54:48;15.43;;;10.53;;
9675;SDS011;4876;42.656;23.292;2022-12-18T05:57:15;15.80;;;8.93;;
9675;SDS011;4876;42.656;23.292;2022-12-18T05:59:43;15.00;;;9.77;;
9675;SDS011;4876;42.656;23.292;2022-12-18T06:02:10;14.10;;;9.10;;
9675;SDS011;4876;42.656;23.292;2022-12-18T06:04:37;14.43;;;9.13;;
9675;SDS011;4876;42.656;23.292;2022-12-18T06:07:03;15.20;;;10.43;;
9675;SDS011;4876;42.656;23.292;2022-12-18T06:09:30;14.03;;;10.63;;
9675;SDS011;4876;42.656;23.292;2022-12-18T06:11:58;14.90;;;11.00;;
9675;SDS011;4876;42.656;23.292;2022-12-18T06:14:25;13.70;;;9.63;;
9675;SDS011;4876;42.656;23.292;2022-12-18T06:16:53;12.70;;;9.33;;
9675;SDS011;4876;42.656;23.292;2022-12-18T06:19:20;13.53;;;9.77;;
9675;SDS011;4876;42.656;23.292;2022-12-18T06:21:47;12.67;;;8.80;;
9675;SDS011;4876;42.656;23.292;2022-12-18T06:24:14;13.97;;;9.37;;
9675;SDS011;4876;42.656;23.292;2022-12-18T06:26:41;12.67;;;8.53;;
9675;SDS011;4876;42.656;23.292;2022-12-18T06:29:08;12.20;;;8.57;;
9675;SDS011;4876;42.656;23.292;2022-12-18T06:31:35;15.33;;;9.47;;
9675;SDS011;4876;42.656;23.292;2022-12-18T06:34:03;13.50;;;9.13;;
9675;SDS011;4876;42.656;23.292;2022-12-18T06:36:30;12.87;;;8.70;;
9675;SDS011;4876;42.656;23.292;2022-12-18T06:38:57;12.30;;;8.77;;
9675;SDS011;4876;42.656;23.292;2022-12-18T06:41:24;13.27;;;8.97;;
9675;SDS011;4876;42.656;23.292;2022-12-18T06:43:54;12.70;;;9.43;;
9675;SDS011;4876;42.656;23.292;2022-12-18T06:46:20;14.63;;;10.13;;
9675;SDS011;4876;42.656;23.292;2022-12-18T06:48:48;14.60;;;10.27;;
9675;SDS011;4876;42.656;23.292;2022-12-18T06:51:20;15.63;;;10.03;;
9675;SDS011;4876;42.656;23.292;2022-12-18T06:53:48;11.13;;;8.70;;
9675;SDS011;4876;42.656;23.292;2022-12-18T06:56:15;14.97;;;8.97;;
9675;SDS011;4876;42.656;23.292;2022-12-18T06:58:42;14.77;;;9.20;;
9675;SDS011;4876;42.656;23.292;2022-12-18T07:01:10;15.30;;;10.27;;
9675;SDS011;4876;42.656;23.292;2022-12-18T07:03:38;13.37;;;9.23;;
9675;SDS011;4876;42.656;23.292;2022-12-18T07:06:05;16.43;;;9.03;;
9675;SDS011;4876;42.656;23.292;2022-12-18T07:08:34;16.33;;;10.50;;
9675;SDS011;4876;42.656;23.292;2022-12-18T07:11:02;15.67;;;9.93;;
9675;SDS011;4876;42.656;23.292;2022-12-18T07:13:30;15.27;;;10.37;;
9675;SDS011;4876;42.656;23.292;2022-12-18T07:16:02;14.63;;;10.20;;
9675;SDS011;4876;42.656;23.292;2022-12-18T07:18:30;12.10;;;8.20;;
9675;SDS011;4876;42.656;23.292;2022-12-18T07:20:57;12.97;;;9.93;;
9675;SDS011;4876;42.656;23.292;2022-12-18T07:23:24;12.80;;;8.67;;
9675;SDS011;4876;42.656;23.292;2022-12-18T07:25:52;16.07;;;9.53;;
9675;SDS011;4876;42.656;23.292;2022-12-18T07:28:19;14.70;;;9.37;;
9675;SDS011;4876;42.656;23.292;2022-12-18T07:30:46;15.30;;;10.37;;
9675;SDS011;4876;42.656;23.292;2022-12-18T07:33:12;13.17;;;8.60;;
9675;SDS011;4876;42.656;23.292;2022-12-18T07:35:39;15.30;;;9.77;;
9675;SDS011;4876;42.656;23.292;2022-12-18T07:38:06;17.37;;;9.07;;
9675;SDS011;4876;42.656;23.292;2022-12-18T07:40:33;13.37;;;9.17;;
9675;SDS011;4876;42.656;23.292;2022-12-18T07:43:01;15.87;;;10.00;;
9675;SDS011;4876;42.656;23.292;2022-12-18T07:45:28;13.47;;;10.30;;
9675;SDS011;4876;42.656;23.292;2022-12-18T07:47:54;13.97;;;8.40;;
9675;SDS011;4876;42.656;23.292;2022-12-18T07:50:21;14.20;;;9.43;;
9675;SDS011;4876;42.656;23.292;2022-12-18T07:52:49;17.97;;;11.67;;
9675;SDS011;4876;42.656;23.292;2022-12-18T07:55:16;18.30;;;10.60;;
9675;SDS011;4876;42.656;23.292;2022-12-18T07:57:42;16.40;;;11.47;;
9675;SDS011;4876;42.656;23.292;2022-12-18T08:00:11;17.47;;;12.00;;
9675;SDS011;4876;42.656;23.292;2022-12-18T08:02:39;18.40;;;11.77;;
9675;SDS011;4876;42.656;23.292;2022-12-18T08:05:06;18.03;;;12.30;;
9675;SDS011;4876;42.656;23.292;2022-12-18T08:07:33;20.93;;;13.00;;
9675;SDS011;4876;42.656;23.292;2022-12-18T08:10:00;17.60;;;12.10;;
9675;SDS011;4876;42.656;23.292;2022-12-18T08:12:41;23.10;;;11.57;;
9675;SDS011;4876;42.656;23.292;2022-12-18T08:18:01;19.13;;;13.30;;
9675;SDS011;4876;42.656;23.292;2022-12-18T08:20:27;21.60;;;13.07;;
9675;SDS011;4876;42.656;23.292;2022-12-18T08:22:54;20.23;;;13.37;;
9675;SDS011;4876;42.656;23.292;2022-12-18T08:25:23;18.77;;;11.43;;
9675;SDS011;4876;42.656;23.292;2022-12-18T08:27:49;21.13;;;14.17;;
9675;SDS011;4876;42.656;23.292;2022-12-18T08:30:16;21.30;;;13.77;;
9675;SDS011;4876;42.656;23.292;2022-12-18T08:32:44;22.00;;;13.53;;
9675;SDS011;4876;42.656;23.292;2022-12-18T08:35:11;24.23;;;14.53;;
9675;SDS011;4876;42.656;23.292;2022-12-18T08:37:38;23.43;;;15.10;;
9675;SDS011;4876;42.656;23.292;2022-12-18T08:40:05;24.70;;;17.40;;
9675;SDS011;4876;42.656;23.292;2022-12-18T08:42:33;24.33;;;15.23;;
9675;SDS011;4876;42.656;23.292;2022-12-18T08:45:17;26.13;;;14.37;;
9675;SDS011;4876;42.656;23.292;2022-12-18T08:47:46;23.50;;;15.63;;
9675;SDS011;4876;42.656;23.292;2022-12-18T08:50:12;26.53;;;18.30;;
9675;SDS011;4876;42.656;23.292;2022-12-18T08:52:40;24.37;;;17.33;;
9675;SDS011;4876;42.656;23.292;2022-12-18T08:55:07;24.57;;;15.93;;
9675;SDS011;4876;42.656;23.292;2022-12-18T08:57:35;24.77;;;16.97;;
9675;SDS011;4876;42.656;23.292;2022-12-18T09:00:02;27.50;;;16.03;;
9675;SDS011;4876;42.656;23.292;2022-12-18T09:02:29;30.37;;;18.73;;
9675;SDS011;4876;42.656;23.292;2022-12-18T09:04:57;23.70;;;17.23;;
9675;SDS011;4876;42.656;23.292;2022-12-18T09:07:24;29.53;;;18.33;;
9675;SDS011;4876;42.656;23.292;2022-12-18T09:09:51;23.47;;;17.23;;
9675;SDS011;4876;42.656;23.292;2022-12-18T09:12:17;25.10;;;16.23;;
9675;SDS011;4876;42.656;23.292;2022-12-18T09:14:44;27.93;;;16.70;;
9675;SDS011;4876;42.656;23.292;2022-12-18T09:17:11;25.30;;;16.97;;
9675;SDS011;4876;42.656;23.292;2022-12-18T09:19:38;26.57;;;17.53;;
9675;SDS011;4876;42.656;23.292;2022-12-18T09:22:09;28.80;;;18.40;;
9675;SDS011;4876;42.656;23.292;2022-12-18T09:24:36;29.30;;;18.30;;
9675;SDS011;4876;42.656;23.292;2022-12-18T09:27:03;25.60;;;17.43;;
9675;SDS011;4876;42.656;23.292;2022-12-18T09:29:30;25.17;;;15.83;;
9675;SDS011;4876;42.656;23.292;2022-12-18T09:31:57;25.03;;;16.93;;
9675;SDS011;4876;42.656;23.292;2022-12-18T09:34:23;23.33;;;15.87;;
9675;SDS011;4876;42.656;23.292;2022-12-18T09:36:50;25.50;;;15.90;;
9675;SDS011;4876;42.656;23.292;2022-12-18T09:39:18;25.27;;;16.63;;
9675;SDS011;4876;42.656;23.292;2022-12-18T09:41:46;25.40;;;16.77;;
9675;SDS011;4876;42.656;23.292;2022-12-18T09:44:20;25.17;;;15.83;;
9675;SDS011;4876;42.656;23.292;2022-12-18T09:46:51;25.47;;;14.83;;
9675;SDS011;4876;42.656;23.292;2022-12-18T09:49:24;28.03;;;16.80;;
9675;SDS011;4876;42.656;23.292;2022-12-18T09:51:54;26.43;;;16.17;;
9675;SDS011;4876;42.656;23.292;2022-12-18T09:54:31;22.93;;;15.47;;
9675;SDS011;4876;42.656;23.292;2022-12-18T09:57:02;23.33;;;15.63;;
9675;SDS011;4876;42.656;23.292;2022-12-18T09:59:30;22.63;;;15.73;;
9675;SDS011;4876;42.656;23.292;2022-12-18T10:02:04;21.67;;;13.73;;
9675;SDS011;4876;42.656;23.292;2022-12-18T10:04:42;21.37;;;13.27;;
9675;SDS011;4876;42.656;23.292;2022-12-18T10:07:10;23.93;;;14.77;;
9675;SDS011;4876;42.656;23.292;2022-12-18T10:09:47;21.40;;;13.43;;
9675;SDS011;4876;42.656;23.292;2022-12-18T10:12:21;23.90;;;14.47;;
9675;SDS011;4876;42.656;23.292;2022-12-18T10:14:56;22.97;;;13.50;;
9675;SDS011;4876;42.656;23.292;2022-12-18T10:17:30;17.37;;;11.93;;
9675;SDS011;4876;42.656;23.292;2022-12-18T10:20:08;21.90;;;13.63;;
9675;SDS011;4876;42.656;23.292;2022-12-18T10:22:47;22.40;;;12.40;;
9675;SDS011;4876;42.656;23.292;2022-12-18T10:25:22;22.00;;;14.43;;
9675;SDS011;4876;42.656;23.292;2022-12-18T10:27:56;22.67;;;14.30;;
9675;SDS011;4876;42.656;23.292;2022-12-18T10:30:26;24.00;;;15.43;;
9675;SDS011;4876;42.656;23.292;2022-12-18T10:32:53;22.37;;;13.70;;
9675;SDS011;4876;42.656;23.292;2022-12-18T10:35:22;18.17;;;12.33;;
9675;SDS011;4876;42.656;23.292;2022-12-18T10:37:59;20.07;;;13.00;;
9675;SDS011;4876;42.656;23.292;2022-12-18T10:40:31;18.10;;;12.73;;
9675;SDS011;4876;42.656;23.292;2022-12-18T10:43:04;15.63;;;10.17;;
9675;SDS011;4876;42.656;23.292;2022-12-18T10:45:36;18.87;;;10.47;;
9675;SDS011;4876;42.656;23.292;2022-12-18T10:48:04;13.93;;;9.50;;
9675;SDS011;4876;42.656;23.292;2022-12-18T10:50:45;15.10;;;8.40;;
9675;SDS011;4876;42.656;23.292;2022-12-18T10:53:16;20.67;;;13.57;;
9675;SDS011;4876;42.656;23.292;2022-12-18T10:55:48;17.03;;;11.67;;
9675;SDS011;4876;42.656;23.292;2022-12-18T10:58:16;20.37;;;12.47;;
9675;SDS011;4876;42.656;23.292;2022-12-18T11:01:01;19.53;;;12.40;;
9675;SDS011;4876;42.656;23.292;2022-12-18T11:03:31;17.43;;;9.93;;
9675;SDS011;4876;42.656;23.292;2022-12-18T11:06:05;15.33;;;10.27;;
9675;SDS011;4876;42.656;23.292;2022-12-18T11:08:33;18.67;;;11.30;;
9675;SDS011;4876;42.656;23.292;2022-12-18T11:11:02;12.33;;;7.53;;
9675;SDS011;4876;42.656;23.292;2022-12-18T11:13:33;14.90;;;8.40;;
9675;SDS011;4876;42.656;23.292;2022-12-18T11:16:00;18.27;;;10.97;;
9675;SDS011;4876;42.656;23.292;2022-12-18T11:18:28;23.07;;;12.63;;
9675;SDS011;4876;42.656;23.292;2022-12-18T11:20:56;17.87;;;12.40;;
9675;SDS011;4876;42.656;23.292;2022-12-18T11:23:26;15.47;;;8.97;;
9675;SDS011;4876;42.656;23.292;2022-12-18T11:25:54;16.97;;;11.53;;
9675;SDS011;4876;42.656;23.292;2022-12-18T11:28:27;17.77;;;11.17;;
9675;SDS011;4876;42.656;23.292;2022-12-18T11:31:09;18.93;;;10.23;;
9675;SDS011;4876;42.656;23.292;2022-12-18T11:33:49;14.67;;;8.97;;
9675;SDS011;4876;42.656;23.292;2022-12-18T11:36:20;16.00;;;10.07;;
9675;SDS011;4876;42.656;23.292;2022-12-18T11:38:49;15.87;;;10.60;;
9675;SDS011;4876;42.656;23.292;2022-12-18T11:41:21;20.07;;;10.53;;
9675;SDS011;4876;42.656;23.292;2022-12-18T11:44:15;16.77;;;10.60;;
9675;SDS011;4876;42.656;23.292;2022-12-18T11:46:50;18.27;;;11.33;;
9675;SDS011;4876;42.656;23.292;2022-12-18T11:49:22;18.03;;;10.37;;
9675;SDS011;4876;42.656;23.292;2022-12-18T11:51:54;14.30;;;8.87;;
9675;SDS011;4876;42.656;23.292;2022-12-18T11:54:26;17.23;;;10.63;;
9675;SDS011;4876;42.656;23.292;2022-12-18T11:56:54;18.43;;;10.40;;
9675;SDS011;4876;42.656;23.292;2022-12-18T11:59:28;15.40;;;10.37;;
9675;SDS011;4876;42.656;23.292;2022-12-18T12:02:11;17.47;;;11.03;;
9675;SDS011;4876;42.656;23.292;2022-12-18T12:05:00;16.97;;;10.83;;
9675;SDS011;4876;42.656;23.292;2022-12-18T12:07:41;16.60;;;10.40;;
9675;SDS011;4876;42.656;23.292;2022-12-18T12:10:23;18.87;;;11.23;;
9675;SDS011;4876;42.656;23.292;2022-12-18T12:13:02;19.40;;;11.80;;
9675;SDS011;4876;42.656;23.292;2022-12-18T12:15:43;19.10;;;11.93;;
9675;SDS011;4876;42.656;23.292;2022-12-18T12:18:20;18.10;;;11.60;;
9675;SDS011;4876;42.656;23.292;2022-12-18T12:20:57;18.20;;;10.97;;
9675;SDS011;4876;42.656;23.292;2022-12-18T12:23:31;17.70;;;11.00;;
9675;SDS011;4876;42.656;23.292;2022-12-18T12:26:06;18.57;;;11.13;;
9675;SDS011;4876;42.656;23.292;2022-12-18T12:31:41;17.60;;;10.93;;
9675;SDS011;4876;42.656;23.292;2022-12-18T12:34:19;19.03;;;11.63;;
9675;SDS011;4876;42.656;23.292;2022-12-18T12:37:00;17.07;;;11.03;;
9675;SDS011;4876;42.656;23.292;2022-12-18T12:39:40;18.33;;;11.63;;
9675;SDS011;4876;42.656;23.292;2022-12-18T12:42:12;18.37;;;11.80;;
9675;SDS011;4876;42.656;23.292;2022-12-18T12:44:59;18.67;;;11.20;;
9675;SDS011;4876;42.656;23.292;2022-12-18T12:47:33;20.60;;;10.80;;
9675;SDS011;4876;42.656;23.292;2022-12-18T12:50:05;18.67;;;10.83;;
9675;SDS011;4876;42.656;23.292;2022-12-18T12:52:41;19.93;;;12.83;;
9675;SDS011;4876;42.656;23.292;2022-12-18T12:55:13;23.93;;;12.50;;
9675;SDS011;4876;42.656;23.292;2022-12-18T12:57:43;19.17;;;11.77;;
9675;SDS011;4876;42.656;23.292;2022-12-18T13:00:15;18.47;;;12.30;;
9675;SDS011;4876;42.656;23.292;2022-12-18T13:02:48;21.43;;;12.73;;
9675;SDS011;4876;42.656;23.292;2022-12-18T13:05:21;21.53;;;13.37;;
9675;SDS011;4876;42.656;23.292;2022-12-18T13:07:56;23.40;;;13.07;;
9675;SDS011;4876;42.656;23.292;2022-12-18T13:10:32;19.80;;;12.77;;
9675;SDS011;4876;42.656;23.292;2022-12-18T13:13:01;20.57;;;13.33;;
9675;SDS011;4876;42.656;23.292;2022-12-18T13:15:31;24.77;;;14.17;;
9675;SDS011;4876;42.656;23.292;2022-12-18T13:18:10;19.63;;;12.43;;
9675;SDS011;4876;42.656;23.292;2022-12-18T13:20:40;24.87;;;14.60;;
9675;SDS011;4876;42.656;23.292;2022-12-18T13:23:26;22.13;;;13.27;;
9675;SDS011;4876;42.656;23.292;2022-12-18T13:25:55;22.00;;;14.50;;
9675;SDS011;4876;42.656;23.292;2022-12-18T13:28:24;21.63;;;14.13;;
9675;SDS011;4876;42.656;23.292;2022-12-18T13:34:28;22.70;;;13.57;;
9675;SDS011;4876;42.656;23.292;2022-12-18T13:43:24;20.43;;;13.07;;
9675;SDS011;4876;42.656;23.292;2022-12-18T13:46:02;19.10;;;12.23;;
9675;SDS011;4876;42.656;23.292;2022-12-18T13:48:47;22.73;;;14.20;;
9675;SDS011;4876;42.656;23.292;2022-12-18T13:51:18;18.80;;;12.90;;
9675;SDS011;4876;42.656;23.292;2022-12-18T13:53:47;21.47;;;13.90;;
9675;SDS011;4876;42.656;23.292;2022-12-18T13:56:17;24.37;;;14.47;;
9675;SDS011;4876;42.656;23.292;2022-12-18T14:01:55;22.93;;;12.37;;
9675;SDS011;4876;42.656;23.292;2022-12-18T14:04:24;18.23;;;12.03;;
9675;SDS011;4876;42.656;23.292;2022-12-18T14:06:54;20.40;;;12.07;;
9675;SDS011;4876;42.656;23.292;2022-12-18T14:09:25;20.77;;;12.03;;
9675;SDS011;4876;42.656;23.292;2022-12-18T14:11:54;20.80;;;13.40;;
9675;SDS011;4876;42.656;23.292;2022-12-18T14:14:44;22.07;;;13.00;;
9675;SDS011;4876;42.656;23.292;2022-12-18T14:17:13;23.27;;;14.70;;
9675;SDS011;4876;42.656;23.292;2022-12-18T14:19:42;20.93;;;13.37;;
9675;SDS011;4876;42.656;23.292;2022-12-18T14:22:16;23.60;;;13.33;;
9675;SDS011;4876;42.656;23.292;2022-12-18T14:24:44;17.23;;;11.57;;
9675;SDS011;4876;42.656;23.292;2022-12-18T14:27:12;20.53;;;13.97;;
9675;SDS011;4876;42.656;23.292;2022-12-18T14:29:47;21.83;;;12.43;;
9675;SDS011;4876;42.656;23.292;2022-12-18T14:32:14;23.00;;;13.70;;
9675;SDS011;4876;42.656;23.292;2022-12-18T14:34:43;18.50;;;12.70;;
9675;SDS011;4876;42.656;23.292;2022-12-18T14:37:11;23.33;;;13.53;;
9675;SDS011;4876;42.656;23.292;2022-12-18T14:39:40;20.50;;;13.80;;
9675;SDS011;4876;42.656;23.292;2022-12-18T14:42:19;18.93;;;11.27;;
9675;SDS011;4876;42.656;23.292;2022-12-18T14:44:46;19.17;;;11.83;;
9675;SDS011;4876;42.656;23.292;2022-12-18T14:47:13;22.73;;;13.43;;
9675;SDS011;4876;42.656;23.292;2022-12-18T14:49:41;21.70;;;12.97;;
9675;SDS011;4876;42.656;23.292;2022-12-18T14:52:13;19.73;;;12.20;;
9675;SDS011;4876;42.656;23.292;2022-12-18T14:54:48;22.23;;;13.37;;
9675;SDS011;4876;42.656;23.292;2022-12-18T14:57:18;21.03;;;12.50;;
9675;SDS011;4876;42.656;23.292;2022-12-18T14:59:48;23.10;;;12.77;;
9675;SDS011;4876;42.656;23.292;2022-12-18T15:02:18;22.97;;;13.77;;
9675;SDS011;4876;42.656;23.292;2022-12-18T15:04:59;20.80;;;13.07;;
9675;SDS011;4876;42.656;23.292;2022-12-18T15:07:27;19.30;;;12.13;;
9675;SDS011;4876;42.656;23.292;2022-12-18T15:10:12;21.10;;;12.20;;
9675;SDS011;4876;42.656;23.292;2022-12-18T15:12:41;17.73;;;11.47;;
9675;SDS011;4876;42.656;23.292;2022-12-18T15:18:11;23.97;;;13.20;;
9675;SDS011;4876;42.656;23.292;2022-12-18T15:20:42;19.73;;;12.67;;
9675;SDS011;4876;42.656;23.292;2022-12-18T15:23:15;19.50;;;11.10;;
9675;SDS011;4876;42.656;23.292;2022-12-18T15:25:45;13.60;;;9.30;;
9675;SDS011;4876;42.656;23.292;2022-12-18T15:28:15;14.50;;;9.63;;